createdAt,value
2022-08-03T00:01:53.084Z,18.90
2022-08-03T00:04:21.341Z,18.80
2022-08-03T00:07:02.252Z,19.20
2022-08-03T00:09:35.634Z,19.00
2022-08-03T00:12:04.266Z,19.20
2022-08-03T00:14:32.503Z,19.60
2022-08-03T00:17:02.008Z,19.30
2022-08-03T00:19:30.131Z,18.90
2022-08-03T00:21:58.281Z,18.60
2022-08-03T00:24:26.429Z,19.70
2022-08-03T00:26:54.572Z,19.40
2022-08-03T00:29:22.719Z,18.90
2022-08-03T00:31:52.903Z,18.60
2022-08-03T00:34:36.399Z,18.60
2022-08-03T00:37:18.220Z,18.90
2022-08-03T00:39:48.012Z,18.50
2022-08-03T00:42:16.924Z,18.60
2022-08-03T00:44:46.651Z,18.70
2022-08-03T00:47:14.914Z,18.40
2022-08-03T00:49:53.094Z,19.00
2022-08-03T00:52:21.423Z,19.00
2022-08-03T00:54:50.537Z,18.80
2022-08-03T00:57:18.723Z,19.50
2022-08-03T00:59:47.289Z,18.50
2022-08-03T01:02:15.558Z,18.60
2022-08-03T01:04:43.868Z,18.60
2022-08-03T01:07:22.056Z,18.90
2022-08-03T01:09:59.734Z,18.20
2022-08-03T01:12:34.129Z,18.30
2022-08-03T01:15:11.550Z,18.60
2022-08-03T01:17:50.217Z,18.70
2022-08-03T01:20:21.948Z,18.60
2022-08-03T01:23:22.580Z,18.70
2022-08-03T01:26:13.774Z,18.70
2022-08-03T01:29:02.752Z,18.80
2022-08-03T01:32:58.715Z,18.80
2022-08-03T01:34:37.865Z,18.80
2022-08-03T01:37:08.669Z,18.40
2022-08-03T01:39:40.460Z,18.70
2022-08-03T01:42:10.102Z,18.70
2022-08-03T01:44:42.076Z,18.40
2022-08-03T01:47:13.052Z,18.80
2022-08-03T01:49:45.315Z,18.60
2022-08-03T01:52:15.789Z,17.80
2022-08-03T01:54:47.594Z,18.60
2022-08-03T01:57:17.106Z,18.90
2022-08-03T01:59:46.516Z,18.60
2022-08-03T02:02:32.293Z,19.20
2022-08-03T02:05:04.364Z,18.60
2022-08-03T02:07:35.604Z,18.40
2022-08-03T02:10:06.552Z,18.50
2022-08-03T02:12:38.101Z,18.20
2022-08-03T02:15:08.709Z,18.10
2022-08-03T02:17:40.419Z,18.70
2022-08-03T02:20:12.171Z,18.80
2022-08-03T02:22:41.924Z,18.40
2022-08-03T02:25:11.727Z,18.10
2022-08-03T02:27:44.207Z,18.00
2022-08-03T02:30:14.388Z,18.00
2022-08-03T02:32:49.656Z,17.80
2022-08-03T02:35:19.677Z,17.60
2022-08-03T02:37:52.932Z,17.90
2022-08-03T02:40:24.097Z,17.90
2022-08-03T02:42:56.808Z,18.40
2022-08-03T02:45:27.476Z,18.30
2022-08-03T02:48:02.099Z,18.00
2022-08-03T02:50:31.763Z,18.40
2022-08-03T02:53:00.869Z,18.10
2022-08-03T02:55:30.218Z,18.20
2022-08-03T02:58:01.695Z,18.20
2022-08-03T03:00:31.208Z,18.10
2022-08-03T03:03:04.006Z,17.90
2022-08-03T03:05:52.328Z,18.20
2022-08-03T03:08:25.913Z,18.10
2022-08-03T03:10:56.133Z,18.20
2022-08-03T03:13:25.023Z,18.20
2022-08-03T03:15:55.678Z,18.10
2022-08-03T03:18:27.192Z,17.70
2022-08-03T03:20:56.494Z,17.50
2022-08-03T03:23:27.945Z,17.70
2022-08-03T03:25:58.580Z,16.90
2022-08-03T03:30:55.800Z,17.10
2022-08-03T03:33:28.234Z,17.70
2022-08-03T03:35:57.104Z,17.80
2022-08-03T03:38:25.260Z,17.90
2022-08-03T03:40:53.847Z,17.30
2022-08-03T03:43:24.170Z,16.80
2022-08-03T03:45:54.024Z,17.20
2022-08-03T03:48:22.303Z,17.30
2022-08-03T03:50:52.000Z,16.90
2022-08-03T03:53:20.490Z,17.20
2022-08-03T03:58:32.252Z,17.40
2022-08-03T04:01:00.809Z,16.90
2022-08-03T04:03:29.285Z,16.80
2022-08-03T04:06:16.396Z,17.10
2022-08-03T04:09:02.113Z,18.00
2022-08-03T04:11:35.187Z,17.40
2022-08-03T04:14:07.783Z,17.80
2022-08-03T04:16:43.448Z,17.30
2022-08-03T04:19:19.741Z,18.00
2022-08-03T04:21:57.194Z,18.10
2022-08-03T04:24:28.322Z,17.60
2022-08-03T04:26:58.644Z,18.10
2022-08-03T04:29:27.933Z,17.50
2022-08-03T04:31:57.788Z,17.60
2022-08-03T04:34:26.040Z,18.10
2022-08-03T04:37:00.992Z,18.50
2022-08-03T04:39:32.457Z,18.50
2022-08-03T04:42:07.985Z,18.00
2022-08-03T04:44:46.834Z,18.50
2022-08-03T04:47:15.280Z,17.40
2022-08-03T04:49:43.973Z,18.20
2022-08-03T04:52:13.801Z,18.10
2022-08-03T04:54:43.003Z,18.10
2022-08-03T04:57:22.836Z,18.30
2022-08-03T04:59:58.203Z,18.00
2022-08-03T05:02:30.333Z,17.90
2022-08-03T05:04:59.060Z,17.40
2022-08-03T05:07:35.576Z,18.70
2022-08-03T05:10:14.826Z,18.50
2022-08-03T05:12:44.210Z,17.90
2022-08-03T05:15:12.967Z,18.40
2022-08-03T05:17:41.181Z,18.70
2022-08-03T05:20:11.013Z,19.50
2022-08-03T05:22:40.558Z,18.80
2022-08-03T05:25:09.401Z,18.40
2022-08-03T05:27:45.578Z,18.60
2022-08-03T05:30:30.907Z,19.00
2022-08-03T05:33:02.793Z,19.60
2022-08-03T05:36:01.063Z,19.30
2022-08-03T05:38:28.050Z,18.80
2022-08-03T05:41:20.990Z,19.50
2022-08-03T05:43:46.189Z,19.50
2022-08-03T05:46:14.558Z,20.20
2022-08-03T05:48:43.408Z,19.00
2022-08-03T05:51:12.454Z,19.70
2022-08-03T05:53:42.615Z,19.90
2022-08-03T05:56:14.428Z,20.20
2022-08-03T05:58:45.279Z,20.00
2022-08-03T06:01:13.560Z,20.10
2022-08-03T06:03:41.761Z,20.00
2022-08-03T06:06:09.970Z,19.90
2022-08-03T06:08:38.244Z,20.20
2022-08-03T06:11:07.886Z,20.30
2022-08-03T06:13:36.041Z,20.80
2022-08-03T06:16:04.320Z,20.70
2022-08-03T06:18:32.537Z,21.60
2022-08-03T06:21:14.333Z,20.90
2022-08-03T06:23:54.240Z,20.90
2022-08-03T06:26:26.015Z,21.00
2022-08-03T06:28:54.941Z,21.10
2022-08-03T06:31:26.127Z,21.30
2022-08-03T06:34:30.680Z,21.60
2022-08-03T06:36:52.541Z,21.70
2022-08-03T06:39:21.082Z,21.80
2022-08-03T06:41:53.751Z,21.90
2022-08-03T06:44:22.030Z,22.00
2022-08-03T06:46:51.162Z,22.10
2022-08-03T06:49:19.632Z,22.30
2022-08-03T06:52:03.997Z,22.40
2022-08-03T06:54:35.743Z,22.60
2022-08-03T06:57:06.239Z,22.60
2022-08-03T07:00:09.093Z,22.80
2022-08-03T07:02:22.814Z,23.00
2022-08-03T07:04:52.219Z,23.00
2022-08-03T07:07:20.691Z,23.20
2022-08-03T07:09:56.861Z,23.30
2022-08-03T07:12:28.119Z,23.40
2022-08-03T07:15:00.663Z,23.50
2022-08-03T07:17:30.293Z,23.60
2022-08-03T07:19:58.781Z,23.80
2022-08-03T07:22:27.129Z,24.00
2022-08-03T07:24:55.633Z,24.20
2022-08-03T07:27:23.918Z,24.40
2022-08-03T07:29:53.445Z,24.50
2022-08-03T07:32:21.595Z,24.80
2022-08-03T07:34:50.091Z,25.20
2022-08-03T07:37:18.277Z,25.50
2022-08-03T07:39:46.558Z,25.70
2022-08-03T07:42:15.058Z,26.40
2022-08-03T07:44:43.383Z,27.30
2022-08-03T07:47:22.545Z,30.40
2022-08-03T07:49:51.170Z,26.50
2022-08-03T07:52:37.317Z,28.70
2022-08-03T07:55:06.400Z,28.80
2022-08-03T07:57:35.154Z,28.60
2022-08-03T08:00:03.817Z,28.20
2022-08-03T08:02:33.289Z,29.00
2022-08-03T08:05:05.523Z,29.00
2022-08-03T08:07:34.151Z,29.40
2022-08-03T08:10:02.321Z,29.50
2022-08-03T08:12:30.639Z,29.50
2022-08-03T08:14:59.083Z,29.50
2022-08-03T08:17:27.230Z,29.60
2022-08-03T08:19:56.862Z,29.80
2022-08-03T08:22:30.060Z,30.00
2022-08-03T08:24:59.808Z,30.10
2022-08-03T08:28:31.105Z,29.90
2022-08-03T08:30:20.115Z,29.70
2022-08-03T08:32:48.794Z,29.30
2022-08-03T08:35:19.131Z,29.30
2022-08-03T08:37:51.183Z,29.50
2022-08-03T08:40:22.576Z,30.00
2022-08-03T08:42:58.539Z,30.30
2022-08-03T08:45:27.914Z,30.30
2022-08-03T08:48:02.566Z,30.80
2022-08-03T08:50:34.687Z,30.70
2022-08-03T08:53:04.770Z,31.00
2022-08-03T08:55:58.041Z,31.30
2022-08-03T08:58:24.325Z,31.50
2022-08-03T09:00:52.866Z,30.70
2022-08-03T09:03:29.164Z,31.40
2022-08-03T09:06:02.199Z,31.40
2022-08-03T09:08:31.052Z,30.40
2022-08-03T09:10:59.557Z,29.90
2022-08-03T09:13:29.059Z,29.80
2022-08-03T09:16:14.546Z,30.00
2022-08-03T09:18:43.562Z,30.40
2022-08-03T09:21:36.764Z,30.80
2022-08-03T09:24:13.034Z,30.80
2022-08-03T09:26:53.939Z,31.00
2022-08-03T09:29:22.733Z,31.10
2022-08-03T09:31:50.933Z,31.00
2022-08-03T09:34:19.605Z,30.60
2022-08-03T09:36:51.019Z,30.80
2022-08-03T09:39:40.200Z,31.20
2022-08-03T09:42:10.767Z,31.30
2022-08-03T09:44:42.205Z,31.30
2022-08-03T09:47:14.191Z,31.40
2022-08-03T09:49:43.890Z,31.60
2022-08-03T09:52:32.259Z,31.50
2022-08-03T09:55:04.082Z,31.50
2022-08-03T09:57:32.222Z,31.50
2022-08-03T10:00:12.356Z,31.30
2022-08-03T10:02:42.204Z,31.40
2022-08-03T10:05:19.572Z,31.50
2022-08-03T10:07:50.707Z,31.50
2022-08-03T10:10:31.053Z,31.60
2022-08-03T10:13:01.412Z,31.60
2022-08-03T10:16:22.505Z,31.20
2022-08-03T10:18:18.630Z,31.20
2022-08-03T10:20:51.292Z,31.30
2022-08-03T10:23:22.521Z,31.30
2022-08-03T10:25:55.971Z,31.50
2022-08-03T10:28:24.381Z,31.70
2022-08-03T10:30:54.588Z,31.80
2022-08-03T10:33:51.298Z,31.80
2022-08-03T10:36:16.435Z,31.90
2022-08-03T10:38:52.701Z,31.70
2022-08-03T10:41:22.175Z,31.50
2022-08-03T10:43:54.502Z,31.40
2022-08-03T10:46:23.197Z,31.60
2022-08-03T10:48:52.884Z,31.90
2022-08-03T10:51:21.843Z,32.10
2022-08-03T10:53:54.644Z,32.10
2022-08-03T10:57:14.421Z,32.00
2022-08-03T11:00:00.603Z,31.80
2022-08-03T11:03:03.690Z,31.70
2022-08-03T11:05:34.608Z,31.70
2022-08-03T11:08:24.678Z,32.00
2022-08-03T11:10:56.588Z,32.00
2022-08-03T11:13:28.263Z,32.10
2022-08-03T11:16:01.654Z,32.30
2022-08-03T11:18:31.614Z,32.20
2022-08-03T11:21:01.216Z,32.10
2022-08-03T11:24:05.099Z,32.00
2022-08-03T11:26:36.381Z,32.00
2022-08-03T11:29:28.048Z,32.10
2022-08-03T11:31:56.447Z,32.20
2022-08-03T11:34:24.996Z,32.40
2022-08-03T11:37:27.522Z,32.20
2022-08-03T11:39:58.400Z,32.20
2022-08-03T11:42:48.126Z,32.20
2022-08-03T11:45:16.550Z,32.20
2022-08-03T11:47:50.498Z,32.30
2022-08-03T11:50:20.221Z,32.10
2022-08-03T11:52:49.060Z,31.70
2022-08-03T11:55:20.503Z,32.30
2022-08-03T11:59:17.705Z,32.50
2022-08-03T12:00:38.481Z,32.30
2022-08-03T12:03:08.904Z,32.30
2022-08-03T12:05:41.830Z,32.30
2022-08-03T12:08:31.350Z,32.30
2022-08-03T12:11:01.577Z,32.30
2022-08-03T12:14:45.352Z,32.30
2022-08-03T12:16:28.587Z,32.30
2022-08-03T12:18:57.959Z,32.00
2022-08-03T12:21:26.304Z,32.00
2022-08-03T12:24:00.267Z,31.90
2022-08-03T12:26:29.426Z,31.80
2022-08-03T12:28:59.211Z,30.40
2022-08-03T12:31:27.411Z,32.00
2022-08-03T12:34:04.103Z,32.10
2022-08-03T12:36:34.078Z,32.10
2022-08-03T12:39:05.163Z,32.20
2022-08-03T12:41:35.273Z,31.90
2022-08-03T12:44:06.643Z,31.90
2022-08-03T12:46:36.341Z,31.80
2022-08-03T12:49:09.408Z,31.90
2022-08-03T12:51:39.089Z,32.00
2022-08-03T12:54:07.788Z,32.20
2022-08-03T12:56:36.548Z,32.40
2022-08-03T12:59:32.504Z,32.50
2022-08-03T13:02:09.449Z,32.70
2022-08-03T13:04:38.273Z,32.70
2022-08-03T13:07:16.715Z,32.90
2022-08-03T13:09:47.854Z,33.00
2022-08-03T13:12:17.151Z,33.00
2022-08-03T13:14:48.620Z,33.00
2022-08-03T13:17:17.787Z,33.00
2022-08-03T13:19:47.248Z,32.90
2022-08-03T13:22:17.697Z,32.80
2022-08-03T13:24:47.088Z,33.00
2022-08-03T13:28:02.516Z,32.80
2022-08-03T13:30:05.989Z,32.90
2022-08-03T13:32:34.266Z,33.00
2022-08-03T13:35:03.065Z,33.00
2022-08-03T13:37:32.538Z,33.10
2022-08-03T13:40:02.650Z,33.20
2022-08-03T13:42:32.706Z,33.10
2022-08-03T13:45:01.696Z,33.10
2022-08-03T13:47:31.387Z,33.10
2022-08-03T13:50:02.474Z,33.00
2022-08-03T13:52:32.777Z,33.10
2022-08-03T13:55:01.035Z,33.40
2022-08-03T13:58:03.233Z,33.20
2022-08-03T14:00:28.098Z,33.20
2022-08-03T14:03:12.211Z,33.30
2022-08-03T14:05:41.653Z,33.00
2022-08-03T14:08:10.388Z,33.00
2022-08-03T14:10:40.586Z,32.90
2022-08-03T14:13:08.952Z,32.90
2022-08-03T14:15:38.110Z,32.50
2022-08-03T14:18:11.960Z,32.70
2022-08-03T14:20:48.766Z,32.80
2022-08-03T14:23:19.751Z,33.00
2022-08-03T14:25:50.366Z,33.10
2022-08-03T14:28:23.646Z,33.00
2022-08-03T14:30:53.007Z,33.00
2022-08-03T14:33:23.287Z,33.10
2022-08-03T14:35:52.035Z,33.20
2022-08-03T14:38:20.884Z,33.20
2022-08-03T14:40:49.647Z,33.30
2022-08-03T14:43:20.278Z,33.20
2022-08-03T14:45:48.700Z,33.20
2022-08-03T14:50:28.956Z,33.40
2022-08-03T14:51:06.689Z,33.30
2022-08-03T14:53:35.632Z,33.20
2022-08-03T14:56:07.988Z,33.10
2022-08-03T14:58:38.974Z,33.10
2022-08-03T15:02:05.154Z,33.20
2022-08-03T15:03:56.747Z,33.40
2022-08-03T15:06:26.511Z,33.30
2022-08-03T15:09:21.459Z,33.40
2022-08-03T15:11:43.724Z,33.40
2022-08-03T15:14:13.543Z,33.40
2022-08-03T15:16:43.357Z,33.20
2022-08-03T15:20:01.172Z,33.10
2022-08-03T15:22:01.734Z,33.20
2022-08-03T15:24:30.428Z,33.20
2022-08-03T15:26:58.896Z,33.40
2022-08-03T15:30:09.021Z,33.40
2022-08-03T15:32:15.273Z,33.60
2022-08-03T15:34:50.242Z,33.60
2022-08-03T15:37:20.882Z,33.70
2022-08-03T15:39:59.286Z,33.60
2022-08-03T15:42:29.661Z,33.50
2022-08-03T15:44:58.064Z,33.80
2022-08-03T15:47:26.221Z,34.10
2022-08-03T15:49:54.349Z,34.00
2022-08-03T15:52:23.968Z,33.80
2022-08-03T15:54:52.314Z,33.60
2022-08-03T15:57:20.687Z,33.70
2022-08-03T15:59:48.967Z,33.70
2022-08-03T16:02:17.386Z,33.70
2022-08-03T16:04:45.832Z,33.80
2022-08-03T16:07:15.905Z,33.70
2022-08-03T16:09:45.524Z,33.50
2022-08-03T16:12:16.034Z,33.10
2022-08-03T16:14:53.989Z,33.00
2022-08-03T16:17:23.613Z,33.00
2022-08-03T16:19:54.813Z,33.00
2022-08-03T16:22:23.950Z,32.80
2022-08-03T16:24:54.521Z,32.70
2022-08-03T16:27:37.447Z,32.80
2022-08-03T16:30:15.409Z,32.90
2022-08-03T16:32:43.805Z,32.90
2022-08-03T16:35:19.694Z,32.80
2022-08-03T16:37:51.833Z,32.70
2022-08-03T16:40:27.025Z,32.70
2022-08-03T16:42:55.194Z,32.60
2022-08-03T16:45:23.732Z,32.50
2022-08-03T16:48:01.729Z,32.50
2022-08-03T16:50:34.819Z,32.30
2022-08-03T16:53:09.176Z,32.20
2022-08-03T16:55:43.574Z,32.00
2022-08-03T16:58:34.277Z,31.80
2022-08-03T17:01:21.033Z,31.90
2022-08-03T17:04:01.474Z,31.90
2022-08-03T17:06:34.208Z,31.80
2022-08-03T17:09:03.342Z,31.80
2022-08-03T17:11:33.257Z,31.70
2022-08-03T17:14:05.325Z,31.70
2022-08-03T17:16:36.029Z,31.70
2022-08-03T17:19:08.391Z,31.60
2022-08-03T17:21:51.037Z,31.60
2022-08-03T17:24:26.448Z,31.70
2022-08-03T17:26:58.827Z,31.60
2022-08-03T17:29:29.755Z,31.60
2022-08-03T17:31:58.239Z,31.40
2022-08-03T17:34:26.902Z,31.40
2022-08-03T17:37:04.445Z,31.40
2022-08-03T17:39:58.747Z,31.30
2022-08-03T17:42:30.798Z,31.30
2022-08-03T17:45:03.573Z,31.30
2022-08-03T17:47:42.838Z,31.40
2022-08-03T17:50:25.302Z,31.40
2022-08-03T17:53:07.039Z,31.50
2022-08-03T17:55:55.981Z,31.40
2022-08-03T17:58:39.688Z,31.20
2022-08-03T18:01:59.275Z,31.10
2022-08-03T18:04:29.638Z,31.10
2022-08-03T18:07:11.217Z,31.00
2022-08-03T18:10:03.251Z,30.90
2022-08-03T18:12:41.526Z,30.80
2022-08-03T18:15:21.306Z,30.70
2022-08-03T18:17:58.167Z,30.70
2022-08-03T18:20:41.214Z,30.70
2022-08-03T18:23:20.394Z,30.70
2022-08-03T18:25:58.201Z,30.60
2022-08-03T18:32:00.191Z,30.10
2022-08-03T18:34:19.021Z,29.90
2022-08-03T18:36:57.167Z,29.50
2022-08-03T18:39:25.812Z,29.20
2022-08-03T18:41:53.953Z,29.00
2022-08-03T18:44:53.549Z,28.80
2022-08-03T18:47:52.157Z,28.50
2022-08-03T18:50:29.438Z,28.30
2022-08-03T18:53:19.467Z,28.20
2022-08-03T18:56:01.940Z,28.20
2022-08-03T18:58:38.633Z,28.00
2022-08-03T19:02:00.946Z,27.90
2022-08-03T19:04:14.967Z,27.60
2022-08-03T19:06:49.093Z,27.40
2022-08-03T19:09:28.975Z,27.30
2022-08-03T19:12:14.305Z,27.20
2022-08-03T19:14:53.509Z,27.00
2022-08-03T19:17:23.485Z,27.00
2022-08-03T19:20:01.548Z,26.80
2022-08-03T19:22:30.101Z,26.70
2022-08-03T19:25:01.883Z,26.50
2022-08-03T19:27:31.689Z,26.30
2022-08-03T19:30:04.490Z,26.20
2022-08-03T19:32:36.571Z,26.10
2022-08-03T19:35:18.721Z,26.00
2022-08-03T19:37:47.185Z,26.00
2022-08-03T19:40:15.521Z,25.80
2022-08-03T19:42:53.245Z,25.70
2022-08-03T19:46:05.370Z,25.70
2022-08-03T19:48:18.938Z,25.70
2022-08-03T19:50:54.481Z,25.60
2022-08-03T19:53:35.161Z,25.50
2022-08-03T19:56:06.399Z,25.40
2022-08-03T19:58:36.347Z,25.30
2022-08-03T20:01:19.488Z,25.20
2022-08-03T20:03:50.602Z,25.10
2022-08-03T20:06:23.550Z,25.10
2022-08-03T20:08:52.615Z,25.00
2022-08-03T20:11:28.607Z,25.00
2022-08-03T20:13:59.362Z,24.90
2022-08-03T20:16:28.031Z,24.70
2022-08-03T20:18:56.306Z,24.50
2022-08-03T20:21:31.774Z,24.40
2022-08-03T20:24:24.514Z,24.30
2022-08-03T20:26:54.765Z,24.20
2022-08-03T20:30:05.418Z,24.10
2022-08-03T20:32:24.694Z,24.10
2022-08-03T20:34:53.601Z,23.90
2022-08-03T20:37:23.158Z,20.70
2022-08-03T20:39:51.367Z,24.00
2022-08-03T20:45:12.963Z,24.10
2022-08-03T20:47:50.457Z,24.10
2022-08-03T20:50:22.085Z,24.00
2022-08-03T20:52:52.100Z,24.10
2022-08-03T20:55:47.120Z,24.00
2022-08-03T20:58:08.817Z,24.00
2022-08-03T21:00:37.048Z,24.00
2022-08-03T21:03:06.813Z,23.90
2022-08-03T21:05:51.110Z,23.80
2022-08-03T21:08:26.711Z,23.70
2022-08-03T21:10:59.248Z,20.70
2022-08-03T21:13:05.926Z,30.40
2022-08-03T21:13:12.908Z,24.00
2022-08-03T21:13:38.029Z,23.60
2022-08-03T21:16:14.635Z,23.60
2022-08-03T21:18:47.325Z,23.60
2022-08-03T21:21:17.317Z,23.60
2022-08-03T21:23:51.269Z,23.70
2022-08-03T21:26:20.684Z,23.60
2022-08-03T21:28:53.411Z,23.50
2022-08-03T21:31:25.090Z,23.40
2022-08-03T21:33:56.322Z,23.30
2022-08-03T21:36:25.261Z,23.00
2022-08-03T21:38:57.247Z,23.10
2022-08-03T21:41:26.966Z,22.90
2022-08-03T21:43:55.347Z,22.90
2022-08-03T21:46:24.770Z,22.90
2022-08-03T21:48:56.698Z,23.60
2022-08-03T21:51:45.119Z,22.70
2022-08-03T21:54:15.317Z,22.70
2022-08-03T21:56:45.461Z,22.70
2022-08-03T21:59:18.731Z,22.60
2022-08-03T22:01:51.315Z,22.50
2022-08-03T22:04:53.421Z,22.40
2022-08-03T22:07:11.983Z,22.30
2022-08-03T22:09:50.985Z,22.20
2022-08-03T22:12:23.765Z,22.30
2022-08-03T22:15:00.426Z,22.20
2022-08-03T22:17:56.214Z,22.10
2022-08-03T22:20:20.286Z,22.10
2022-08-03T22:22:55.131Z,22.20
2022-08-03T22:25:30.044Z,22.30
2022-08-03T22:28:00.469Z,22.20
2022-08-03T22:30:28.826Z,22.20
2022-08-03T22:32:58.002Z,22.00
2022-08-03T22:35:28.090Z,22.10
2022-08-03T22:37:58.713Z,22.00
2022-08-03T22:40:29.172Z,21.90
2022-08-03T22:42:57.940Z,21.90
2022-08-03T22:46:07.242Z,21.80
2022-08-03T22:48:17.962Z,21.80
2022-08-03T22:50:47.051Z,21.80
2022-08-03T22:53:19.679Z,21.80
2022-08-03T22:55:49.785Z,21.70
2022-08-03T22:58:18.323Z,21.70
2022-08-03T23:00:53.810Z,21.70
2022-08-03T23:03:25.499Z,21.70
2022-08-03T23:06:17.716Z,21.60
2022-08-03T23:08:48.508Z,21.50
2022-08-03T23:11:19.342Z,21.50
2022-08-03T23:13:51.136Z,21.40
2022-08-03T23:16:29.572Z,21.30
2022-08-03T23:18:58.973Z,21.30
2022-08-03T23:21:53.947Z,21.10
2022-08-03T23:24:28.491Z,21.20
2022-08-03T23:26:59.914Z,21.10
2022-08-03T23:29:29.567Z,21.20
2022-08-03T23:31:59.367Z,21.20
2022-08-03T23:34:46.662Z,21.20
2022-08-03T23:37:16.020Z,21.20
2022-08-03T23:39:46.676Z,21.10
2022-08-03T23:42:19.561Z,21.10
2022-08-03T23:44:54.119Z,21.00
2022-08-03T23:47:22.616Z,20.90
2022-08-03T23:49:51.092Z,20.90
2022-08-03T23:52:30.322Z,20.80
2022-08-03T23:55:12.335Z,20.80
2022-08-03T23:57:53.427Z,21.30
